createdAt,value
2023-05-02T00:00:10.884Z,0.0000
2023-05-02T00:01:12.871Z,0.0000
2023-05-02T00:02:15.022Z,0.0000
2023-05-02T00:03:17.503Z,0.0000
2023-05-02T00:04:19.790Z,0.0000
2023-05-02T00:05:22.228Z,0.0000
2023-05-02T00:06:24.284Z,0.0000
2023-05-02T00:07:26.283Z,0.0000
2023-05-02T00:08:28.319Z,0.0000
2023-05-02T00:09:30.349Z,0.0000
2023-05-02T00:10:32.357Z,0.0000
2023-05-02T00:11:34.395Z,0.0000
2023-05-02T00:12:36.425Z,0.0000
2023-05-02T00:13:38.468Z,0.0000
2023-05-02T00:14:40.477Z,0.0000
2023-05-02T00:15:42.480Z,0.0000
2023-05-02T00:16:44.518Z,0.0000
2023-05-02T00:17:46.535Z,0.0000
2023-05-02T00:18:48.537Z,0.0000
2023-05-02T00:19:50.587Z,0.0000
2023-05-02T00:20:52.608Z,0.0000
2023-05-02T00:21:54.631Z,0.0000
2023-05-02T00:22:56.681Z,0.0000
2023-05-02T00:23:58.707Z,0.0000
2023-05-02T00:25:00.755Z,0.0000
2023-05-02T00:26:02.793Z,0.0000
2023-05-02T00:27:04.829Z,0.0000
2023-05-02T00:28:06.869Z,0.0000
2023-05-02T00:29:08.906Z,0.0000
2023-05-02T00:30:11.710Z,0.0000
2023-05-02T00:31:13.805Z,0.0000
2023-05-02T00:32:15.787Z,0.0000
2023-05-02T00:33:17.841Z,0.0000
2023-05-02T00:34:19.854Z,0.0000
2023-05-02T00:35:21.875Z,0.0000
2023-05-02T00:36:23.895Z,0.0000
2023-05-02T00:37:25.912Z,0.0000
2023-05-02T00:38:27.987Z,0.0000
2023-05-02T00:39:30.048Z,0.0000
2023-05-02T00:40:32.092Z,0.0000
2023-05-02T00:41:34.126Z,0.0000
2023-05-02T00:42:36.456Z,0.0000
2023-05-02T00:43:38.650Z,0.0000
2023-05-02T00:44:40.710Z,0.0000
2023-05-02T00:45:42.763Z,0.0000
2023-05-02T00:46:44.841Z,0.0000
2023-05-02T00:47:46.889Z,0.0000
2023-05-02T00:48:48.933Z,0.0000
2023-05-02T00:49:50.956Z,0.0000
2023-05-02T00:50:52.978Z,0.0000
2023-05-02T00:51:55.052Z,0.0000
2023-05-02T00:52:57.045Z,0.0000
2023-05-02T00:53:59.063Z,0.0000
2023-05-02T00:55:01.099Z,0.0000
2023-05-02T00:56:03.132Z,0.0000
2023-05-02T00:57:05.183Z,0.0000
2023-05-02T00:58:07.231Z,0.0000
2023-05-02T00:59:09.267Z,0.0000
2023-05-02T01:00:11.350Z,0.0000
2023-05-02T01:01:13.413Z,0.0000
2023-05-02T01:02:15.472Z,0.0000
2023-05-02T01:03:17.721Z,0.0000
2023-05-02T01:04:19.875Z,0.0000
2023-05-02T01:05:21.887Z,0.0000
2023-05-02T01:06:23.940Z,0.0000
2023-05-02T01:07:25.954Z,0.0000
2023-05-02T01:08:27.976Z,0.0000
2023-05-02T01:09:30.000Z,0.0000
2023-05-02T01:10:32.050Z,0.0000
2023-05-02T01:11:34.087Z,0.0000
2023-05-02T01:12:36.122Z,0.0000
2023-05-02T01:13:38.181Z,0.0000
2023-05-02T01:14:40.278Z,0.0000
2023-05-02T01:15:42.390Z,0.0000
2023-05-02T01:16:44.656Z,0.0000
2023-05-02T01:17:46.913Z,0.0000
2023-05-02T01:18:48.964Z,0.0000
2023-05-02T01:19:51.090Z,0.0000
2023-05-02T01:20:53.136Z,0.0000
2023-05-02T01:21:55.114Z,0.0000
2023-05-02T01:22:57.155Z,0.0000
2023-05-02T01:23:59.187Z,0.0000
2023-05-02T01:25:01.555Z,0.0000
2023-05-02T01:26:03.583Z,0.0000
2023-05-02T01:27:05.635Z,0.0000
2023-05-02T01:28:07.697Z,0.0000
2023-05-02T01:29:09.746Z,0.0000
2023-05-02T01:30:11.761Z,0.0000
2023-05-02T01:31:13.807Z,0.0000
2023-05-02T01:32:15.820Z,0.0000
2023-05-02T01:33:17.879Z,0.0000
2023-05-02T01:34:19.927Z,0.0000
2023-05-02T01:35:21.975Z,0.0000
2023-05-02T01:36:23.982Z,0.0000
2023-05-02T01:37:26.002Z,0.0000
2023-05-02T01:38:28.010Z,0.0000
2023-05-02T01:39:30.053Z,0.0000
2023-05-02T01:40:32.126Z,0.0000
2023-05-02T01:41:34.167Z,0.0000
2023-05-02T01:42:36.910Z,0.0000
2023-05-02T01:43:38.972Z,0.0000
2023-05-02T01:44:40.994Z,0.0000
2023-05-02T01:45:43.001Z,0.0000
2023-05-02T01:46:45.060Z,0.0000
2023-05-02T01:47:47.140Z,0.0000
2023-05-02T01:48:49.143Z,0.0000
2023-05-02T01:49:51.158Z,0.0000
2023-05-02T01:50:53.245Z,0.0000
2023-05-02T01:51:55.239Z,0.0000
2023-05-02T01:52:57.260Z,0.0000
2023-05-02T01:53:59.307Z,0.0000
2023-05-02T01:55:01.336Z,0.0000
2023-05-02T01:56:03.381Z,0.0000
2023-05-02T01:57:05.406Z,0.0000
2023-05-02T01:58:07.438Z,0.0000
2023-05-02T01:59:09.441Z,0.0000
2023-05-02T02:00:11.470Z,0.0000
2023-05-02T02:01:13.517Z,0.0000
2023-05-02T02:02:15.531Z,0.0000
2023-05-02T02:03:17.635Z,0.0000
2023-05-02T02:04:19.752Z,0.0000
2023-05-02T02:05:21.602Z,0.0000
2023-05-02T02:06:23.672Z,0.0000
2023-05-02T02:07:25.715Z,0.0000
2023-05-02T02:08:27.672Z,0.0000
2023-05-02T02:09:29.704Z,0.0000
2023-05-02T02:10:31.725Z,0.0000
2023-05-02T02:11:33.716Z,0.0000
2023-05-02T02:12:36.072Z,0.0000
2023-05-02T02:13:38.106Z,0.0000
2023-05-02T02:14:40.134Z,0.0000
2023-05-02T02:15:42.165Z,0.0000
2023-05-02T02:16:44.246Z,0.0000
2023-05-02T02:17:46.428Z,0.0000
2023-05-02T02:18:48.468Z,0.0000
2023-05-02T02:19:50.530Z,0.0000
2023-05-02T02:20:52.552Z,0.0000
2023-05-02T02:21:54.601Z,0.0000
2023-05-02T02:22:56.630Z,0.0000
2023-05-02T02:23:58.661Z,0.0000
2023-05-02T02:25:00.705Z,0.0000
2023-05-02T02:26:02.785Z,0.0000
2023-05-02T02:27:04.843Z,0.0000
2023-05-02T02:28:06.871Z,0.0000
2023-05-02T02:29:08.865Z,0.0000
2023-05-02T02:30:11.238Z,0.0000
2023-05-02T02:31:13.331Z,0.0000
2023-05-02T02:32:15.359Z,0.0000
2023-05-02T02:33:17.376Z,0.0000
2023-05-02T02:34:19.440Z,0.0000
2023-05-02T02:35:21.693Z,0.0000
2023-05-02T02:36:23.708Z,0.0000
2023-05-02T02:37:25.752Z,0.0000
2023-05-02T02:38:27.761Z,0.0000
2023-05-02T02:39:29.790Z,0.0000
2023-05-02T02:40:31.845Z,0.0000
2023-05-02T02:41:33.880Z,0.0000
2023-05-02T02:42:35.926Z,0.0000
2023-05-02T02:43:37.931Z,0.0000
2023-05-02T02:44:40.213Z,0.0000
2023-05-02T02:45:42.242Z,0.0000
2023-05-02T02:46:44.359Z,0.0000
2023-05-02T02:47:46.430Z,0.0000
2023-05-02T02:48:48.396Z,0.0000
2023-05-02T02:49:50.444Z,0.0000
2023-05-02T02:50:52.444Z,0.0000
2023-05-02T02:51:54.451Z,0.0000
2023-05-02T02:52:56.536Z,0.0000
2023-05-02T02:53:58.568Z,0.0000
2023-05-02T02:55:00.628Z,0.0000
2023-05-02T02:56:02.617Z,0.0000
2023-05-02T02:57:04.652Z,0.0000
2023-05-02T02:58:06.664Z,0.0000
2023-05-02T02:59:08.702Z,0.0000
2023-05-02T03:00:10.738Z,0.0000
2023-05-02T03:01:12.766Z,0.0000
2023-05-02T03:02:14.772Z,0.0000
2023-05-02T03:03:16.885Z,0.0000
2023-05-02T03:04:18.940Z,0.0000
2023-05-02T03:05:19.070Z,0.0000
2023-05-02T03:06:21.227Z,0.0000
2023-05-02T03:07:23.268Z,0.0000
2023-05-02T03:08:25.302Z,0.0000
2023-05-02T03:09:27.371Z,0.0000
2023-05-02T03:10:29.367Z,0.0000
2023-05-02T03:11:31.394Z,0.0000
2023-05-02T03:12:33.429Z,0.0000
2023-05-02T03:13:35.421Z,0.0000
2023-05-02T03:14:37.455Z,0.0000
2023-05-02T03:15:40.005Z,0.0000
2023-05-02T03:16:42.115Z,0.0000
2023-05-02T03:17:44.361Z,0.0000
2023-05-02T03:18:46.383Z,0.0000
2023-05-02T03:19:48.518Z,0.0000
2023-05-02T03:20:50.513Z,0.0000
2023-05-02T03:21:52.551Z,0.0000
2023-05-02T03:22:54.607Z,0.0000
2023-05-02T03:23:56.629Z,0.0000
2023-05-02T03:24:58.661Z,0.0000
2023-05-02T03:26:00.654Z,0.0000
2023-05-02T03:27:02.658Z,0.0000
2023-05-02T03:28:04.718Z,0.0000
2023-05-02T03:29:06.734Z,0.0000
2023-05-02T03:30:08.751Z,0.0000
2023-05-02T03:31:10.787Z,0.0000
2023-05-02T03:32:13.136Z,0.0000
2023-05-02T03:33:15.426Z,0.0000
2023-05-02T03:34:17.411Z,0.0000
2023-05-02T03:35:19.672Z,0.0000
2023-05-02T03:36:21.691Z,0.0000
2023-05-02T03:37:23.740Z,0.0000
2023-05-02T03:38:25.776Z,0.0000
2023-05-02T03:39:27.799Z,0.0000
2023-05-02T03:40:29.829Z,0.0000
2023-05-02T03:41:31.913Z,0.0000
2023-05-02T03:42:33.958Z,0.0000
2023-05-02T03:43:36.045Z,0.0000
2023-05-02T03:44:38.025Z,0.0000
2023-05-02T03:45:40.041Z,0.0000
2023-05-02T03:46:42.098Z,0.0000
2023-05-02T03:47:44.434Z,0.0000
2023-05-02T03:48:46.451Z,0.0000
2023-05-02T03:49:48.505Z,0.0000
2023-05-02T03:50:50.548Z,0.0000
2023-05-02T03:51:52.571Z,0.0000
2023-05-02T03:52:54.666Z,0.0000
2023-05-02T03:53:56.707Z,0.0000
2023-05-02T03:54:58.757Z,0.0000
2023-05-02T03:56:00.797Z,0.0000
2023-05-02T03:57:02.841Z,0.0000
2023-05-02T03:58:04.873Z,0.0000
2023-05-02T03:59:06.906Z,0.0000
2023-05-02T04:00:07.062Z,0.0000
2023-05-02T04:01:09.085Z,0.0000
2023-05-02T04:02:11.152Z,0.0000
2023-05-02T04:03:13.263Z,0.0000
2023-05-02T04:04:15.310Z,0.0000
2023-05-02T04:05:17.344Z,0.0000
2023-05-02T04:06:19.441Z,3.3088
2023-05-02T04:07:21.459Z,5.6250
2023-05-02T04:08:23.471Z,5.6250
2023-05-02T04:09:25.645Z,5.6250
2023-05-02T04:10:27.720Z,5.6250
2023-05-02T04:11:29.751Z,5.9559
2023-05-02T04:12:31.835Z,11.2500
2023-05-02T04:13:33.856Z,11.2500
2023-05-02T04:14:35.881Z,11.2500
2023-05-02T04:15:37.931Z,11.2500
2023-05-02T04:16:39.960Z,13.5662
2023-05-02T04:17:42.009Z,16.8750
2023-05-02T04:18:44.035Z,16.8750
2023-05-02T04:19:46.116Z,16.8750
2023-05-02T04:20:48.148Z,22.5000
2023-05-02T04:21:50.212Z,22.5000
2023-05-02T04:22:50.413Z,22.5000
2023-05-02T04:23:52.443Z,22.5000
2023-05-02T04:24:54.505Z,22.5000
2023-05-02T04:25:56.540Z,27.7941
2023-05-02T04:26:58.590Z,28.1250
2023-05-02T04:28:00.606Z,31.7647
2023-05-02T04:29:02.630Z,33.7500
2023-05-02T04:30:04.667Z,35.0735
2023-05-02T04:31:06.740Z,39.3750
2023-05-02T04:32:08.732Z,39.3750
2023-05-02T04:33:10.832Z,39.3750
2023-05-02T04:34:12.822Z,43.6765
2023-05-02T04:35:14.852Z,45.0000
2023-05-02T04:36:16.880Z,46.3235
2023-05-02T04:37:18.948Z,50.6250
2023-05-02T04:38:21.048Z,54.5956
2023-05-02T04:39:23.158Z,57.9044
2023-05-02T04:40:25.171Z,61.8750
2023-05-02T04:41:27.206Z,67.1691
2023-05-02T04:42:29.219Z,70.4779
2023-05-02T04:43:31.249Z,74.4485
2023-05-02T04:44:33.273Z,78.7500
2023-05-02T04:45:35.299Z,84.3750
2023-05-02T04:46:37.384Z,90.3309
2023-05-02T04:47:39.469Z,96.9485
2023-05-02T04:48:41.491Z,103.5662
2023-05-02T04:49:43.518Z,110.5147
2023-05-02T04:50:45.583Z,119.4485
2023-05-02T04:51:47.579Z,128.7132
2023-05-02T04:52:49.614Z,139.6324
2023-05-02T04:53:51.712Z,151.5441
2023-05-02T04:54:53.778Z,165.1103
2023-05-02T04:55:55.884Z,177.3529
2023-05-02T04:56:57.898Z,189.9265
2023-05-02T04:57:59.933Z,203.4926
2023-05-02T04:59:02.004Z,215.7353
2023-05-02T05:00:04.289Z,228.3088
2023-05-02T05:01:06.288Z,238.8971
2023-05-02T05:02:08.481Z,250.1471
2023-05-02T05:03:10.740Z,262.0588
2023-05-02T05:04:12.841Z,272.6471
2023-05-02T05:05:14.980Z,279.9265
2023-05-02T05:06:17.090Z,283.5662
2023-05-02T05:07:19.098Z,293.4926
2023-05-02T05:08:21.131Z,300.7721
2023-05-02T05:09:23.169Z,299.1176
2023-05-02T05:10:25.215Z,290.1838
2023-05-02T05:11:27.257Z,283.8971
2023-05-02T05:12:29.284Z,281.2500
2023-05-02T05:13:31.324Z,281.2500
2023-05-02T05:14:33.354Z,283.8971
2023-05-02T05:15:35.451Z,288.8603
2023-05-02T05:16:37.561Z,295.8088
2023-05-02T05:17:39.737Z,310.0368
2023-05-02T05:18:41.752Z,324.2647
2023-05-02T05:19:43.774Z,333.1985
2023-05-02T05:20:46.119Z,337.5000
2023-05-02T05:21:48.378Z,342.7941
2023-05-02T05:22:50.460Z,351.7279
2023-05-02T05:23:52.480Z,363.9706
2023-05-02T05:24:54.504Z,365.6250
2023-05-02T05:25:56.530Z,369.5956
2023-05-02T05:26:58.560Z,365.9559
2023-05-02T05:28:00.604Z,358.3456
2023-05-02T05:29:02.659Z,343.7868
2023-05-02T05:30:04.707Z,333.1985
2023-05-02T05:31:06.780Z,326.5809
2023-05-02T05:32:08.812Z,326.2500
2023-05-02T05:33:11.266Z,324.5956
2023-05-02T05:34:13.371Z,315.0000
2023-05-02T05:35:15.429Z,305.7353
2023-05-02T05:36:17.484Z,295.1471
2023-05-02T05:37:19.563Z,283.5662
2023-05-02T05:38:21.612Z,272.3162
2023-05-02T05:39:23.664Z,263.7132
2023-05-02T05:40:25.715Z,255.1103
2023-05-02T05:41:27.769Z,247.1691
2023-05-02T05:42:29.834Z,239.5588
2023-05-02T05:43:31.906Z,231.2868
2023-05-02T05:44:33.989Z,230.6250
2023-05-02T05:45:36.084Z,233.6029
2023-05-02T05:46:38.249Z,240.8824
2023-05-02T05:47:40.432Z,244.8529
2023-05-02T05:48:42.597Z,251.8015
2023-05-02T05:49:44.638Z,253.1250
2023-05-02T05:50:46.715Z,243.8603
2023-05-02T05:51:48.795Z,227.9779
2023-05-02T05:52:50.867Z,209.7794
2023-05-02T05:53:52.943Z,199.5221
2023-05-02T05:54:55.029Z,198.5294
2023-05-02T05:55:57.095Z,202.5000
2023-05-02T05:56:59.177Z,206.8015
2023-05-02T05:58:01.253Z,210.7721
2023-05-02T05:59:03.341Z,222.6838
2023-05-02T06:00:05.455Z,238.8971
2023-05-02T06:01:07.770Z,256.1250
2023-05-02T06:02:09.864Z,276.2868
2023-05-02T06:03:12.326Z,303.0882
2023-05-02T06:04:14.553Z,331.8750
2023-05-02T06:05:16.641Z,360.0000
2023-05-02T06:06:18.701Z,378.5294
2023-05-02T06:07:20.762Z,382.5000
2023-05-02T06:08:23.132Z,383.1618
2023-05-02T06:09:25.181Z,382.5000
2023-05-02T06:10:27.234Z,386.8015
2023-05-02T06:11:29.329Z,408.3088
2023-05-02T06:12:31.365Z,445.6985
2023-05-02T06:13:33.418Z,475.8088
2023-05-02T06:14:35.569Z,502.2794
2023-05-02T06:15:37.662Z,532.0588
2023-05-02T06:16:39.773Z,550.2573
2023-05-02T06:17:41.798Z,552.0000
2023-05-02T06:18:43.860Z,547.9412
2023-05-02T06:19:45.914Z,541.6544
2023-05-02T06:20:47.973Z,532.0588
2023-05-02T06:21:50.035Z,522.1323
2023-05-02T06:22:52.119Z,510.8824
2023-05-02T06:23:54.246Z,501.6176
2023-05-02T06:24:56.284Z,512.5367
2023-05-02T06:25:58.356Z,532.0588
2023-05-02T06:27:00.428Z,527.0956
2023-05-02T06:28:02.487Z,510.5515
2023-05-02T06:29:04.553Z,511.2132
2023-05-02T06:30:06.672Z,537.6838
2023-05-02T06:31:08.758Z,567.7941
2023-05-02T06:32:10.848Z,578.3823
2023-05-02T06:33:12.951Z,568.7867
2023-05-02T06:34:15.030Z,551.9117
2023-05-02T06:35:17.110Z,536.0294
2023-05-02T06:36:19.194Z,519.4853
2023-05-02T06:37:21.243Z,494.0074
2023-05-02T06:38:23.320Z,458.2721
2023-05-02T06:39:25.397Z,432.4632
2023-05-02T06:40:27.536Z,436.4338
2023-05-02T06:41:29.608Z,466.8750
2023-05-02T06:42:31.665Z,520.1470
2023-05-02T06:43:33.732Z,599.5588
2023-05-02T06:44:35.794Z,700.1470
2023-05-02T06:45:37.865Z,794.4485
2023-05-02T06:46:39.987Z,870.5515
2023-05-02T06:47:42.114Z,928.7867
2023-05-02T06:48:44.137Z,971.4706
2023-05-02T06:49:46.216Z,993.9706
2023-05-02T06:50:48.327Z,989.3383
2023-05-02T06:51:50.402Z,966.1765
2023-05-02T06:52:52.460Z,957.2427
2023-05-02T06:53:54.552Z,948.6397
2023-05-02T06:54:56.598Z,945.9927
2023-05-02T06:55:58.700Z,963.5294
2023-05-02T06:57:00.761Z,1006.2133
2023-05-02T06:58:02.807Z,1054.1912
2023-05-02T06:59:04.858Z,1111.1029
2023-05-02T07:00:06.980Z,1128.6396
2023-05-02T07:01:09.190Z,1126.6544
2023-05-02T07:02:11.274Z,1131.2867
2023-05-02T07:03:13.383Z,1137.5735
2023-05-02T07:04:15.484Z,1112.7573
2023-05-02T07:05:17.552Z,1073.7133
2023-05-02T07:06:19.648Z,1067.7573
2023-05-02T07:07:21.732Z,1108.4559
2023-05-02T07:08:23.858Z,1185.0000
2023-05-02T07:09:25.982Z,1279.5221
2023-05-02T07:10:28.038Z,1334.1177
2023-05-02T07:11:30.060Z,1360.9191
2023-05-02T07:12:32.170Z,1355.9559
2023-05-02T07:13:34.205Z,1329.8162
2023-05-02T07:14:36.263Z,1301.3604
2023-05-02T07:15:38.331Z,1276.2133
2023-05-02T07:16:40.514Z,1250.7354
2023-05-02T07:17:42.644Z,1223.9338
2023-05-02T07:18:44.701Z,1199.4485
2023-05-02T07:19:46.770Z,1177.9412
2023-05-02T07:20:48.834Z,1178.2721
2023-05-02T07:21:50.894Z,1202.4265
2023-05-02T07:22:52.927Z,1229.2279
2023-05-02T07:23:54.975Z,1260.6617
2023-05-02T07:24:57.178Z,1294.4117
2023-05-02T07:25:59.219Z,1328.8235
2023-05-02T07:27:01.706Z,1367.2059
2023-05-02T07:28:03.803Z,1420.4779
2023-05-02T07:29:05.888Z,1486.9854
2023-05-02T07:30:08.098Z,1543.5662
2023-05-02T07:31:10.183Z,1577.6471
2023-05-02T07:32:12.284Z,1647.1323
2023-05-02T07:33:14.331Z,1725.5515
2023-05-02T07:34:16.503Z,1800.3309
2023-05-02T07:35:18.555Z,2021.0294
2023-05-02T07:36:20.595Z,2362.8308
2023-05-02T07:37:22.705Z,2100.1104
2023-05-02T07:38:24.796Z,1814.8896
2023-05-02T07:39:26.832Z,1815.5515
2023-05-02T07:40:28.900Z,2015.0735
2023-05-02T07:41:30.958Z,2137.5000
2023-05-02T07:42:33.038Z,1841.3604
2023-05-02T07:43:35.100Z,1727.8677
2023-05-02T07:44:37.181Z,1621.3235
2023-05-02T07:45:39.243Z,1482.3529
2023-05-02T07:46:41.410Z,1512.4633
2023-05-02T07:47:43.579Z,2001.8383
2023-05-02T07:48:45.700Z,1381.1029
2023-05-02T07:49:47.759Z,1154.4485
2023-05-02T07:50:49.856Z,1037.3162
2023-05-02T07:51:51.919Z,921.5073
2023-05-02T07:52:54.016Z,794.1177
2023-05-02T07:53:56.097Z,711.7280
2023-05-02T07:54:58.178Z,659.7794
2023-05-02T07:56:00.261Z,639.9265
2023-05-02T07:57:02.409Z,642.9044
2023-05-02T07:58:04.479Z,652.1691
2023-05-02T07:59:06.522Z,679.6323
2023-05-02T08:00:10.240Z,694.1912
2023-05-02T08:01:16.701Z,723.5156
2023-05-02T08:02:18.843Z,824.8897
2023-05-02T08:03:20.997Z,929.1177
2023-05-02T08:04:23.356Z,1018.4559
2023-05-02T08:05:25.450Z,1092.2427
2023-05-02T08:06:27.536Z,1149.1544
2023-05-02T08:07:29.638Z,1149.1544
2023-05-02T08:08:31.733Z,1248.0883
2023-05-02T08:09:33.805Z,1334.7794
2023-05-02T08:10:35.898Z,1333.1250
2023-05-02T08:11:37.989Z,1252.0588
2023-05-02T08:12:40.105Z,1159.7427
2023-05-02T08:13:42.171Z,1074.3750
2023-05-02T08:14:44.252Z,1039.9633
2023-05-02T08:15:46.399Z,1069.0809
2023-05-02T08:16:48.541Z,1146.1765
2023-05-02T08:17:50.906Z,1224.9265
2023-05-02T08:18:52.985Z,1302.6838
2023-05-02T08:19:55.076Z,1386.3971
2023-05-02T08:20:57.137Z,1447.2794
2023-05-02T08:21:59.265Z,1486.9854
2023-05-02T08:23:01.615Z,1510.4779
2023-05-02T08:25:04.262Z,1538.9338
2023-05-02T08:26:06.351Z,1562.7573
2023-05-02T08:27:08.424Z,1529.3383
2023-05-02T08:28:10.522Z,1444.3015
2023-05-02T08:29:12.637Z,1354.6323
2023-05-02T08:30:14.784Z,1290.1104
2023-05-02T08:31:16.938Z,1245.7721
2023-05-02T08:32:18.964Z,1214.0073
2023-05-02T08:33:21.127Z,1199.4485
2023-05-02T08:34:23.158Z,1209.7059
2023-05-02T08:35:25.241Z,1267.9412
2023-05-02T08:36:27.294Z,1373.1617
2023-05-02T08:37:29.384Z,1498.2354
2023-05-02T08:38:31.449Z,1592.2059
2023-05-02T08:39:33.501Z,1648.4559
2023-05-02T08:40:42.174Z,1655.0735
2023-05-02T08:41:36.283Z,1594.5000
2023-05-02T08:42:38.362Z,1555.1471
2023-05-02T08:43:40.440Z,1768.8971
2023-05-02T08:44:42.521Z,1871.4706
2023-05-02T08:45:44.717Z,1879.7427
2023-05-02T08:46:46.852Z,1977.6838
2023-05-02T08:47:49.258Z,2066.3604
2023-05-02T08:48:51.326Z,2087.5369
2023-05-02T08:49:53.479Z,2052.7942
2023-05-02T08:50:55.544Z,2036.5809
2023-05-02T08:51:57.663Z,2052.1323
2023-05-02T08:52:59.736Z,2164.9631
2023-05-02T08:54:01.794Z,1970.0735
2023-05-02T08:55:04.065Z,1710.6617
2023-05-02T08:56:06.452Z,1604.4485
2023-05-02T08:57:08.766Z,1795.0367
2023-05-02T08:58:10.867Z,2717.8677
2023-05-02T08:59:12.972Z,3263.4927
2023-05-02T09:00:15.063Z,2630.5146
2023-05-02T09:01:17.188Z,2698.3457
2023-05-02T09:02:19.261Z,2556.0662
2023-05-02T09:03:23.376Z,2623.8970
2023-05-02T09:04:22.240Z,2919.7266
2023-05-02T09:05:24.339Z,3568.5662
2023-05-02T09:06:26.480Z,3005.4043
2023-05-02T09:07:28.566Z,3090.7720
2023-05-02T09:08:30.632Z,3028.5662
2023-05-02T09:09:39.778Z,2497.8308
2023-05-02T09:10:34.553Z,2221.1250
2023-05-02T09:11:36.391Z,2113.8750
2023-05-02T09:12:38.443Z,2003.4927
2023-05-02T09:13:40.524Z,1894.6323
2023-05-02T09:15:45.938Z,1832.0956
2023-05-02T09:16:48.067Z,1761.2867
2023-05-02T09:17:50.137Z,1812.9044
2023-05-02T09:18:52.180Z,1977.3529
2023-05-02T09:19:54.181Z,2434.8750
2023-05-02T09:20:56.238Z,2777.7573
2023-05-02T09:21:58.314Z,3482.8677
2023-05-02T09:23:03.875Z,2945.0391
2023-05-02T09:24:05.934Z,2878.0146
2023-05-02T09:25:08.099Z,3188.3823
2023-05-02T09:26:10.168Z,3099.7058
2023-05-02T09:27:12.284Z,3861.3970
2023-05-02T09:28:14.309Z,3151.6543
2023-05-02T09:29:23.894Z,3693.6396
2023-05-02T09:30:25.983Z,4652.5366
2023-05-02T09:31:49.792Z,3925.2573
2023-05-02T09:32:34.384Z,3444.3750
2023-05-02T09:33:36.571Z,3760.1470
2023-05-02T09:34:38.620Z,4693.2354
2023-05-02T09:35:40.719Z,4396.7646
2023-05-02T09:36:42.792Z,5344.4116
2023-05-02T09:37:44.854Z,4806.0664
2023-05-02T09:38:46.932Z,2671.5442
2023-05-02T09:39:48.915Z,2375.2500
2023-05-02T09:40:50.959Z,2130.5515
2023-05-02T09:41:53.031Z,1918.4559
2023-05-02T09:42:54.939Z,1727.2500
2023-05-02T09:43:57.023Z,1577.9779
2023-05-02T09:44:59.276Z,1554.4854
2023-05-02T09:46:01.652Z,1561.7646
2023-05-02T09:47:03.695Z,1607.7573
2023-05-02T09:48:05.837Z,1721.9117
2023-05-02T09:49:07.883Z,3469.6323
2023-05-02T09:50:09.939Z,4143.6396
2023-05-02T09:51:12.030Z,2844.9265
2023-05-02T09:52:14.131Z,3710.8457
2023-05-02T09:53:16.275Z,4580.7354
2023-05-02T09:54:18.361Z,4621.4336
2023-05-02T09:55:20.716Z,4914.5957
2023-05-02T09:56:23.966Z,4936.7646
2023-05-02T09:57:23.243Z,2137.8516
2023-05-02T09:58:25.371Z,2462.0957
2023-05-02T09:59:27.451Z,3336.0000
2023-05-02T10:00:29.540Z,4892.7573
2023-05-02T10:01:31.634Z,5422.1689
2023-05-02T10:03:33.825Z,5408.6030
2023-05-02T10:04:36.011Z,5483.0513
2023-05-02T10:05:38.096Z,5678.9336
2023-05-02T10:06:40.303Z,5688.1987
2023-05-02T10:07:42.401Z,5564.1177
2023-05-02T10:08:44.467Z,5058.8604
2023-05-02T10:09:46.605Z,5399.0073
2023-05-02T10:10:48.959Z,5356.5000
2023-05-02T10:11:51.032Z,5191.2134
2023-05-02T10:12:53.132Z,3158.9338
2023-05-02T10:14:58.904Z,2848.8970
2023-05-02T10:16:01.039Z,3335.9558
2023-05-02T10:17:03.164Z,3388.5662
2023-05-02T10:19:08.523Z,3050.7354
2023-05-02T10:20:10.595Z,2921.3604
2023-05-02T10:21:12.639Z,2438.2720
2023-05-02T10:22:14.721Z,4017.5735
2023-05-02T10:23:16.865Z,3046.4338
2023-05-02T10:24:18.930Z,2180.8457
2023-05-02T10:25:21.002Z,1852.2794
2023-05-02T10:26:23.098Z,1809.5956
2023-05-02T10:27:25.155Z,1969.4117
2023-05-02T10:28:27.252Z,1505.1838
2023-05-02T10:29:29.311Z,1420.8088
2023-05-02T10:30:30.275Z,1383.7500
2023-05-02T10:31:32.412Z,1371.1765
2023-05-02T10:32:34.888Z,1363.5000
2023-05-02T10:33:36.957Z,1339.4117
2023-05-02T10:34:39.104Z,1321.8750
2023-05-02T10:35:39.467Z,1300.6250
2023-05-02T10:37:45.048Z,1264.9633
2023-05-02T10:38:47.060Z,1174.3015
2023-05-02T10:39:49.144Z,1142.8677
2023-05-02T10:40:51.171Z,1126.6544
2023-05-02T10:41:53.235Z,1121.0294
2023-05-02T10:42:55.299Z,1130.2941
2023-05-02T10:43:57.132Z,1141.8750
2023-05-02T10:44:59.467Z,1160.0735
2023-05-02T10:46:01.657Z,1157.4265
2023-05-02T10:47:03.790Z,1106.1396
2023-05-02T10:48:04.390Z,1030.6250
2023-05-02T10:49:06.463Z,981.3970
2023-05-02T10:50:08.589Z,958.5662
2023-05-02T10:51:10.640Z,978.0883
2023-05-02T10:52:12.743Z,1040.2941
2023-05-02T10:53:14.806Z,1108.7867
2023-05-02T10:54:16.781Z,1173.3750
2023-05-02T10:55:18.841Z,1233.1985
2023-05-02T10:56:20.892Z,1302.3529
2023-05-02T10:57:22.989Z,1375.8088
2023-05-02T10:58:25.098Z,1451.5809
2023-05-02T10:59:27.146Z,1504.8529
2023-05-02T11:00:27.205Z,1535.6250
2023-05-02T11:01:29.440Z,1573.0146
2023-05-02T11:02:31.751Z,1653.4191
2023-05-02T11:03:33.909Z,1654.4117
2023-05-02T11:04:35.778Z,1689.3750
2023-05-02T11:05:37.840Z,1715.2941
2023-05-02T11:06:40.238Z,1718.6250
2023-05-02T11:07:42.274Z,1734.1544
2023-05-02T11:08:44.350Z,1727.8677
2023-05-02T11:09:46.671Z,1706.3604
2023-05-02T11:10:48.749Z,1724.2279
2023-05-02T11:11:58.325Z,1777.8309
2023-05-02T11:12:53.458Z,1863.0000
2023-05-02T11:13:55.523Z,2028.3088
2023-05-02T11:14:57.640Z,2970.6619
2023-05-02T11:16:00.232Z,3497.2500
2023-05-02T11:17:02.287Z,3205.9192
2023-05-02T11:18:12.124Z,3343.2354
2023-05-02T11:19:06.956Z,3633.3750
2023-05-02T11:20:09.048Z,3594.7058
2023-05-02T11:21:11.115Z,3564.9265
2023-05-02T11:22:13.248Z,3530.8457
2023-05-02T11:23:15.279Z,3091.4338
2023-05-02T11:24:17.382Z,3108.3088
2023-05-02T11:25:19.465Z,4310.7354
2023-05-02T11:26:21.557Z,4291.2134
2023-05-02T11:27:23.655Z,3694.9631
2023-05-02T11:28:25.731Z,1670.9559
2023-05-02T11:29:27.828Z,1475.4044
2023-05-02T11:30:29.972Z,1650.7721
2023-05-02T11:31:32.092Z,5017.8311
2023-05-02T11:32:34.419Z,4909.3013
2023-05-02T11:33:36.509Z,3900.1104
2023-05-02T11:34:38.598Z,1754.0073
2023-05-02T11:35:44.563Z,1676.6016
2023-05-02T11:36:54.309Z,1521.7279
2023-05-02T11:37:56.386Z,1556.8015
2023-05-02T11:38:58.488Z,1740.1104
2023-05-02T11:40:00.588Z,4393.4561
2023-05-02T11:41:02.689Z,4558.5664
2023-05-02T11:42:04.774Z,5539.3013
2023-05-02T11:43:06.810Z,5550.8823
2023-05-02T11:44:08.951Z,3208.2354
2023-05-02T11:45:11.010Z,2016.0662
2023-05-02T11:46:13.108Z,1861.5441
2023-05-02T11:47:15.143Z,4587.6836
2023-05-02T11:48:17.249Z,5542.6104
2023-05-02T11:49:19.326Z,5566.4336
2023-05-02T11:50:21.420Z,5625.0000
2023-05-02T11:51:23.509Z,5614.0811
2023-05-02T11:52:26.242Z,5567.6250
2023-05-02T11:53:28.283Z,5576.0293
2023-05-02T11:54:30.618Z,5609.2500
2023-05-02T11:55:36.608Z,5207.6953
2023-05-02T11:56:38.679Z,4935.4414
2023-05-02T11:58:40.997Z,4063.8970
2023-05-02T12:00:43.600Z,2042.2059
2023-05-02T12:01:45.678Z,2488.5662
2023-05-02T12:02:47.812Z,4869.2646
2023-05-02T12:03:50.007Z,5131.3237
2023-05-02T12:04:52.127Z,3176.4707
2023-05-02T12:05:54.287Z,5310.3311
2023-05-02T12:06:56.445Z,5782.8750
2023-05-02T12:07:58.585Z,5083.0146
2023-05-02T12:09:00.682Z,4813.0146
2023-05-02T12:10:03.069Z,4051.3235
2023-05-02T12:11:05.192Z,4498.0146
2023-05-02T12:13:10.168Z,4832.8677
2023-05-02T12:14:10.288Z,5562.0703
2023-05-02T12:15:12.449Z,5238.8604
2023-05-02T12:16:14.671Z,4963.8970
2023-05-02T12:17:16.838Z,3794.5588
2023-05-02T12:18:20.760Z,2304.9265
2023-05-02T12:19:20.486Z,1956.4453
2023-05-02T12:20:22.609Z,1820.1838
2023-05-02T12:21:24.726Z,1668.6396
2023-05-02T12:22:26.857Z,1539.9265
2023-05-02T12:23:28.956Z,1429.7427
2023-05-02T12:24:31.100Z,1340.7354
2023-05-02T12:25:33.194Z,1263.6396